sensor_id;sensor_type;location;lat;lon;timestamp;temperature;humidity
15969;DHT22;8085;53.472;9.794;2023-05-07T00:00:04;8.90;99.90
15969;DHT22;8085;53.472;9.794;2023-05-07T00:02:33;8.90;99.90
15969;DHT22;8085;53.472;9.794;2023-05-07T00:05:00;8.90;99.90
15969;DHT22;8085;53.472;9.794;2023-05-07T00:07:27;8.90;99.90
15969;DHT22;8085;53.472;9.794;2023-05-07T00:09:54;8.80;99.90
15969;DHT22;8085;53.472;9.794;2023-05-07T00:12:22;8.80;99.90
15969;DHT22;8085;53.472;9.794;2023-05-07T00:14:49;8.70;99.90
15969;DHT22;8085;53.472;9.794;2023-05-07T00:17:16;8.70;99.90
15969;DHT22;8085;53.472;9.794;2023-05-07T00:19:43;8.80;99.90
15969;DHT22;8085;53.472;9.794;2023-05-07T00:22:10;8.80;99.90
15969;DHT22;8085;53.472;9.794;2023-05-07T00:24:37;8.80;99.90
15969;DHT22;8085;53.472;9.794;2023-05-07T00:27:04;8.80;99.90
15969;DHT22;8085;53.472;9.794;2023-05-07T00:29:33;8.70;99.90
15969;DHT22;8085;53.472;9.794;2023-05-07T00:32:00;8.70;99.90
15969;DHT22;8085;53.472;9.794;2023-05-07T00:34:26;8.70;99.90
15969;DHT22;8085;53.472;9.794;2023-05-07T00:36:53;8.70;99.90
15969;DHT22;8085;53.472;9.794;2023-05-07T00:39:20;8.80;99.90
15969;DHT22;8085;53.472;9.794;2023-05-07T00:41:47;8.80;99.90
15969;DHT22;8085;53.472;9.794;2023-05-07T00:44:14;8.90;99.90
15969;DHT22;8085;53.472;9.794;2023-05-07T00:46:42;8.80;99.90
15969;DHT22;8085;53.472;9.794;2023-05-07T00:49:10;8.80;99.90
15969;DHT22;8085;53.472;9.794;2023-05-07T00:51:37;8.80;99.90
15969;DHT22;8085;53.472;9.794;2023-05-07T00:54:04;8.80;99.90
15969;DHT22;8085;53.472;9.794;2023-05-07T00:56:31;8.80;99.90
15969;DHT22;8085;53.472;9.794;2023-05-07T00:58:58;8.90;99.90
15969;DHT22;8085;53.472;9.794;2023-05-07T01:01:25;8.80;99.90
15969;DHT22;8085;53.472;9.794;2023-05-07T01:03:54;8.80;99.90
15969;DHT22;8085;53.472;9.794;2023-05-07T01:06:22;8.80;99.90
15969;DHT22;8085;53.472;9.794;2023-05-07T01:08:50;8.80;99.90
15969;DHT22;8085;53.472;9.794;2023-05-07T01:11:18;8.80;99.90
15969;DHT22;8085;53.472;9.794;2023-05-07T01:13:46;8.80;99.90
15969;DHT22;8085;53.472;9.794;2023-05-07T01:16:14;8.80;99.90
15969;DHT22;8085;53.472;9.794;2023-05-07T01:18:41;8.80;99.90
15969;DHT22;8085;53.472;9.794;2023-05-07T01:21:11;8.70;99.90
15969;DHT22;8085;53.472;9.794;2023-05-07T01:23:39;8.70;99.90
15969;DHT22;8085;53.472;9.794;2023-05-07T01:26:07;8.70;99.90
15969;DHT22;8085;53.472;9.794;2023-05-07T01:28:34;8.80;99.90
15969;DHT22;8085;53.472;9.794;2023-05-07T01:31:03;8.80;99.90
15969;DHT22;8085;53.472;9.794;2023-05-07T01:33:34;8.70;99.90
15969;DHT22;8085;53.472;9.794;2023-05-07T01:36:03;8.70;99.90
15969;DHT22;8085;53.472;9.794;2023-05-07T01:38:32;8.70;99.90
15969;DHT22;8085;53.472;9.794;2023-05-07T01:41:01;8.70;99.90
15969;DHT22;8085;53.472;9.794;2023-05-07T01:43:28;8.80;99.90
15969;DHT22;8085;53.472;9.794;2023-05-07T01:45:57;8.70;99.90
15969;DHT22;8085;53.472;9.794;2023-05-07T01:48:25;8.80;99.90
15969;DHT22;8085;53.472;9.794;2023-05-07T01:50:52;8.80;99.90
15969;DHT22;8085;53.472;9.794;2023-05-07T01:53:19;8.80;99.90
15969;DHT22;8085;53.472;9.794;2023-05-07T01:55:46;8.80;99.90
15969;DHT22;8085;53.472;9.794;2023-05-07T01:58:14;8.80;99.90
15969;DHT22;8085;53.472;9.794;2023-05-07T02:00:41;8.80;99.90
15969;DHT22;8085;53.472;9.794;2023-05-07T02:03:08;8.80;99.90
15969;DHT22;8085;53.472;9.794;2023-05-07T02:05:35;8.90;99.90
15969;DHT22;8085;53.472;9.794;2023-05-07T02:08:02;8.80;99.90
15969;DHT22;8085;53.472;9.794;2023-05-07T02:10:29;8.80;99.90
15969;DHT22;8085;53.472;9.794;2023-05-07T02:12:56;8.80;99.90
15969;DHT22;8085;53.472;9.794;2023-05-07T02:15:24;8.80;99.90
15969;DHT22;8085;53.472;9.794;2023-05-07T02:17:59;8.80;99.90
15969;DHT22;8085;53.472;9.794;2023-05-07T02:20:26;8.90;99.90
15969;DHT22;8085;53.472;9.794;2023-05-07T02:22:53;8.80;99.90
15969;DHT22;8085;53.472;9.794;2023-05-07T02:25:20;8.80;99.90
15969;DHT22;8085;53.472;9.794;2023-05-07T02:27:47;8.80;99.90
15969;DHT22;8085;53.472;9.794;2023-05-07T02:30:14;8.80;99.90
15969;DHT22;8085;53.472;9.794;2023-05-07T02:32:42;8.90;99.90
15969;DHT22;8085;53.472;9.794;2023-05-07T02:35:09;8.90;99.90
15969;DHT22;8085;53.472;9.794;2023-05-07T02:37:36;8.80;99.90
15969;DHT22;8085;53.472;9.794;2023-05-07T02:40:04;8.80;99.90
15969;DHT22;8085;53.472;9.794;2023-05-07T02:42:31;8.80;99.90
15969;DHT22;8085;53.472;9.794;2023-05-07T02:44:58;8.80;99.90
15969;DHT22;8085;53.472;9.794;2023-05-07T02:47:25;8.90;99.90
15969;DHT22;8085;53.472;9.794;2023-05-07T02:49:55;8.80;99.90
15969;DHT22;8085;53.472;9.794;2023-05-07T02:52:22;8.80;99.90
15969;DHT22;8085;53.472;9.794;2023-05-07T02:54:49;8.90;99.90
15969;DHT22;8085;53.472;9.794;2023-05-07T02:57:16;8.90;99.90
15969;DHT22;8085;53.472;9.794;2023-05-07T02:59:43;8.80;99.90
15969;DHT22;8085;53.472;9.794;2023-05-07T03:02:10;8.80;99.90
15969;DHT22;8085;53.472;9.794;2023-05-07T03:04:37;8.80;99.90
15969;DHT22;8085;53.472;9.794;2023-05-07T03:07:06;8.80;99.90
15969;DHT22;8085;53.472;9.794;2023-05-07T03:09:32;8.80;99.90
15969;DHT22;8085;53.472;9.794;2023-05-07T03:11:59;8.80;99.90
15969;DHT22;8085;53.472;9.794;2023-05-07T03:14:27;8.80;99.90
15969;DHT22;8085;53.472;9.794;2023-05-07T03:16:54;8.80;99.90
15969;DHT22;8085;53.472;9.794;2023-05-07T03:19:21;8.80;99.90
15969;DHT22;8085;53.472;9.794;2023-05-07T03:21:48;8.80;99.90
15969;DHT22;8085;53.472;9.794;2023-05-07T03:24:16;8.80;99.90
15969;DHT22;8085;53.472;9.794;2023-05-07T03:26:43;8.80;99.90
15969;DHT22;8085;53.472;9.794;2023-05-07T03:29:10;8.80;99.90
15969;DHT22;8085;53.472;9.794;2023-05-07T03:31:36;8.80;99.90
15969;DHT22;8085;53.472;9.794;2023-05-07T03:34:04;8.80;99.90
15969;DHT22;8085;53.472;9.794;2023-05-07T03:36:31;8.70;99.90
15969;DHT22;8085;53.472;9.794;2023-05-07T03:38:58;8.70;99.90
15969;DHT22;8085;53.472;9.794;2023-05-07T03:41:26;8.70;99.90
15969;DHT22;8085;53.472;9.794;2023-05-07T03:43:55;8.70;99.90
15969;DHT22;8085;53.472;9.794;2023-05-07T03:46:22;8.70;99.90
15969;DHT22;8085;53.472;9.794;2023-05-07T03:48:51;8.70;99.90
15969;DHT22;8085;53.472;9.794;2023-05-07T03:51:18;8.70;99.90
15969;DHT22;8085;53.472;9.794;2023-05-07T03:53:45;8.70;99.90
15969;DHT22;8085;53.472;9.794;2023-05-07T03:56:12;8.70;99.90
15969;DHT22;8085;53.472;9.794;2023-05-07T03:58:40;8.70;99.90
15969;DHT22;8085;53.472;9.794;2023-05-07T04:01:07;8.70;99.90
15969;DHT22;8085;53.472;9.794;2023-05-07T04:03:34;8.70;99.90
15969;DHT22;8085;53.472;9.794;2023-05-07T04:06:01;8.80;99.90
15969;DHT22;8085;53.472;9.794;2023-05-07T04:08:28;8.70;99.90
15969;DHT22;8085;53.472;9.794;2023-05-07T04:10:55;8.80;99.90
15969;DHT22;8085;53.472;9.794;2023-05-07T04:13:22;8.80;99.90
15969;DHT22;8085;53.472;9.794;2023-05-07T04:15:50;8.80;99.90
15969;DHT22;8085;53.472;9.794;2023-05-07T04:18:17;8.70;99.90
15969;DHT22;8085;53.472;9.794;2023-05-07T04:20:44;8.70;99.90
15969;DHT22;8085;53.472;9.794;2023-05-07T04:23:11;8.80;99.90
15969;DHT22;8085;53.472;9.794;2023-05-07T04:25:38;8.80;99.90
15969;DHT22;8085;53.472;9.794;2023-05-07T04:28:05;8.80;99.90
15969;DHT22;8085;53.472;9.794;2023-05-07T04:30:32;8.80;99.90
15969;DHT22;8085;53.472;9.794;2023-05-07T04:33:00;8.80;99.90
15969;DHT22;8085;53.472;9.794;2023-05-07T04:35:27;8.80;99.90
15969;DHT22;8085;53.472;9.794;2023-05-07T04:37:54;8.80;99.90
15969;DHT22;8085;53.472;9.794;2023-05-07T04:40:21;8.90;99.90
15969;DHT22;8085;53.472;9.794;2023-05-07T04:42:48;8.90;99.90
15969;DHT22;8085;53.472;9.794;2023-05-07T04:45:14;9.00;99.90
15969;DHT22;8085;53.472;9.794;2023-05-07T04:47:41;9.00;99.90
15969;DHT22;8085;53.472;9.794;2023-05-07T04:50:10;9.00;99.90
15969;DHT22;8085;53.472;9.794;2023-05-07T04:52:37;9.00;99.90
15969;DHT22;8085;53.472;9.794;2023-05-07T04:55:04;9.00;99.90
15969;DHT22;8085;53.472;9.794;2023-05-07T04:57:31;9.00;99.90
15969;DHT22;8085;53.472;9.794;2023-05-07T04:59:58;9.00;99.90
15969;DHT22;8085;53.472;9.794;2023-05-07T05:02:25;9.00;99.90
15969;DHT22;8085;53.472;9.794;2023-05-07T05:04:52;9.10;99.90
15969;DHT22;8085;53.472;9.794;2023-05-07T05:07:20;9.10;99.90
15969;DHT22;8085;53.472;9.794;2023-05-07T05:09:47;9.10;99.90
15969;DHT22;8085;53.472;9.794;2023-05-07T05:12:14;9.10;99.90
15969;DHT22;8085;53.472;9.794;2023-05-07T05:14:41;9.10;99.90
15969;DHT22;8085;53.472;9.794;2023-05-07T05:17:08;9.10;99.90
15969;DHT22;8085;53.472;9.794;2023-05-07T05:19:35;9.10;99.90
15969;DHT22;8085;53.472;9.794;2023-05-07T05:22:02;9.10;99.90
15969;DHT22;8085;53.472;9.794;2023-05-07T05:24:30;9.10;99.90
15969;DHT22;8085;53.472;9.794;2023-05-07T05:26:57;9.10;99.90
15969;DHT22;8085;53.472;9.794;2023-05-07T05:29:25;9.10;99.90
15969;DHT22;8085;53.472;9.794;2023-05-07T05:31:52;9.10;99.90
15969;DHT22;8085;53.472;9.794;2023-05-07T05:34:19;9.10;99.90
15969;DHT22;8085;53.472;9.794;2023-05-07T05:36:47;9.10;99.90
15969;DHT22;8085;53.472;9.794;2023-05-07T05:39:14;9.10;99.90
15969;DHT22;8085;53.472;9.794;2023-05-07T05:41:42;9.10;99.90
15969;DHT22;8085;53.472;9.794;2023-05-07T05:44:09;9.20;99.90
15969;DHT22;8085;53.472;9.794;2023-05-07T05:46:36;9.10;99.90
15969;DHT22;8085;53.472;9.794;2023-05-07T05:49:03;9.10;99.90
15969;DHT22;8085;53.472;9.794;2023-05-07T05:51:30;9.10;99.90
15969;DHT22;8085;53.472;9.794;2023-05-07T05:53:57;9.10;99.90
15969;DHT22;8085;53.472;9.794;2023-05-07T05:56:24;9.20;99.90
15969;DHT22;8085;53.472;9.794;2023-05-07T05:58:52;9.20;99.90
15969;DHT22;8085;53.472;9.794;2023-05-07T06:01:19;9.20;99.90
15969;DHT22;8085;53.472;9.794;2023-05-07T06:03:46;9.20;99.90
15969;DHT22;8085;53.472;9.794;2023-05-07T06:06:13;9.20;99.90
15969;DHT22;8085;53.472;9.794;2023-05-07T06:08:41;9.20;99.90
15969;DHT22;8085;53.472;9.794;2023-05-07T06:11:08;9.30;99.90
15969;DHT22;8085;53.472;9.794;2023-05-07T06:13:35;9.30;99.90
15969;DHT22;8085;53.472;9.794;2023-05-07T06:16:04;9.30;99.90
15969;DHT22;8085;53.472;9.794;2023-05-07T06:18:31;9.30;99.90
15969;DHT22;8085;53.472;9.794;2023-05-07T06:20:58;9.40;99.90
15969;DHT22;8085;53.472;9.794;2023-05-07T06:23:25;9.40;99.90
15969;DHT22;8085;53.472;9.794;2023-05-07T06:25:51;9.30;99.90
15969;DHT22;8085;53.472;9.794;2023-05-07T06:28:18;9.40;99.90
15969;DHT22;8085;53.472;9.794;2023-05-07T06:30:45;9.40;99.90
15969;DHT22;8085;53.472;9.794;2023-05-07T06:33:14;9.40;99.90
15969;DHT22;8085;53.472;9.794;2023-05-07T06:35:40;9.40;99.90
15969;DHT22;8085;53.472;9.794;2023-05-07T06:38:07;9.50;99.90
15969;DHT22;8085;53.472;9.794;2023-05-07T06:40:34;9.50;99.90
15969;DHT22;8085;53.472;9.794;2023-05-07T06:43:01;9.60;99.90
15969;DHT22;8085;53.472;9.794;2023-05-07T06:45:28;9.60;99.90
15969;DHT22;8085;53.472;9.794;2023-05-07T06:47:55;9.60;99.90
15969;DHT22;8085;53.472;9.794;2023-05-07T06:50:23;9.60;99.90
15969;DHT22;8085;53.472;9.794;2023-05-07T06:52:50;9.60;99.90
15969;DHT22;8085;53.472;9.794;2023-05-07T06:55:17;9.60;99.90
15969;DHT22;8085;53.472;9.794;2023-05-07T06:57:44;9.60;99.90
15969;DHT22;8085;53.472;9.794;2023-05-07T07:00:12;9.70;99.90
15969;DHT22;8085;53.472;9.794;2023-05-07T07:02:39;9.70;99.90
15969;DHT22;8085;53.472;9.794;2023-05-07T07:05:07;9.80;99.90
15969;DHT22;8085;53.472;9.794;2023-05-07T07:07:35;9.80;99.90
15969;DHT22;8085;53.472;9.794;2023-05-07T07:10:02;9.90;99.90
15969;DHT22;8085;53.472;9.794;2023-05-07T07:12:30;9.90;99.90
15969;DHT22;8085;53.472;9.794;2023-05-07T07:14:57;10.00;99.90
15969;DHT22;8085;53.472;9.794;2023-05-07T07:17:26;10.00;99.90
15969;DHT22;8085;53.472;9.794;2023-05-07T07:19:59;10.00;99.90
15969;DHT22;8085;53.472;9.794;2023-05-07T07:22:26;10.10;99.90
15969;DHT22;8085;53.472;9.794;2023-05-07T07:24:54;10.10;99.90
15969;DHT22;8085;53.472;9.794;2023-05-07T07:27:21;10.10;99.90
15969;DHT22;8085;53.472;9.794;2023-05-07T07:29:48;10.20;99.90
15969;DHT22;8085;53.472;9.794;2023-05-07T07:32:15;10.20;99.90
15969;DHT22;8085;53.472;9.794;2023-05-07T07:34:42;10.30;99.90
15969;DHT22;8085;53.472;9.794;2023-05-07T07:37:08;10.20;99.90
15969;DHT22;8085;53.472;9.794;2023-05-07T07:39:35;10.30;99.90
15969;DHT22;8085;53.472;9.794;2023-05-07T07:42:06;10.30;99.90
15969;DHT22;8085;53.472;9.794;2023-05-07T07:44:33;10.30;99.90
15969;DHT22;8085;53.472;9.794;2023-05-07T07:47:00;10.40;99.90
15969;DHT22;8085;53.472;9.794;2023-05-07T07:49:27;10.50;99.90
15969;DHT22;8085;53.472;9.794;2023-05-07T07:51:53;10.40;99.90
15969;DHT22;8085;53.472;9.794;2023-05-07T07:54:21;10.50;99.90
15969;DHT22;8085;53.472;9.794;2023-05-07T07:56:48;10.50;99.90
15969;DHT22;8085;53.472;9.794;2023-05-07T07:59:17;10.60;99.90
15969;DHT22;8085;53.472;9.794;2023-05-07T08:01:45;10.60;99.90
15969;DHT22;8085;53.472;9.794;2023-05-07T08:04:13;10.60;99.90
15969;DHT22;8085;53.472;9.794;2023-05-07T08:06:40;10.70;99.90
15969;DHT22;8085;53.472;9.794;2023-05-07T08:09:07;10.70;93.30
15969;DHT22;8085;53.472;9.794;2023-05-07T08:11:36;10.80;83.30
15969;DHT22;8085;53.472;9.794;2023-05-07T08:14:04;10.80;65.70
15969;DHT22;8085;53.472;9.794;2023-05-07T08:16:32;10.70;57.40
15969;DHT22;8085;53.472;9.794;2023-05-07T08:18:59;10.70;55.90
15969;DHT22;8085;53.472;9.794;2023-05-07T08:21:26;10.70;53.40
15969;DHT22;8085;53.472;9.794;2023-05-07T08:23:53;10.70;55.10
15969;DHT22;8085;53.472;9.794;2023-05-07T08:26:20;10.70;58.60
15969;DHT22;8085;53.472;9.794;2023-05-07T08:28:46;10.80;53.60
15969;DHT22;8085;53.472;9.794;2023-05-07T08:31:13;10.70;46.20
15969;DHT22;8085;53.472;9.794;2023-05-07T08:33:42;10.70;44.90
15969;DHT22;8085;53.472;9.794;2023-05-07T08:36:09;10.80;47.50
15969;DHT22;8085;53.472;9.794;2023-05-07T08:38:36;10.80;40.70
15969;DHT22;8085;53.472;9.794;2023-05-07T08:41:03;10.90;29.40
15969;DHT22;8085;53.472;9.794;2023-05-07T08:43:32;10.90;19.30
15969;DHT22;8085;53.472;9.794;2023-05-07T08:46:01;10.90;16.50
15969;DHT22;8085;53.472;9.794;2023-05-07T08:48:29;11.00;12.70
15969;DHT22;8085;53.472;9.794;2023-05-07T08:50:59;11.00;18.20
15969;DHT22;8085;53.472;9.794;2023-05-07T08:53:26;11.00;19.50
15969;DHT22;8085;53.472;9.794;2023-05-07T08:55:53;11.10;13.30
15969;DHT22;8085;53.472;9.794;2023-05-07T08:58:20;11.10;9.10
15969;DHT22;8085;53.472;9.794;2023-05-07T09:00:47;11.10;11.70
15969;DHT22;8085;53.472;9.794;2023-05-07T09:03:14;11.10;1.00
15969;DHT22;8085;53.472;9.794;2023-05-07T09:05:41;11.10;4.70
15969;DHT22;8085;53.472;9.794;2023-05-07T09:08:14;11.20;1.00
15969;DHT22;8085;53.472;9.794;2023-05-07T09:10:41;11.30;1.00
15969;DHT22;8085;53.472;9.794;2023-05-07T09:13:08;11.30;1.00
15969;DHT22;8085;53.472;9.794;2023-05-07T09:15:38;11.30;1.00
15969;DHT22;8085;53.472;9.794;2023-05-07T09:18:05;11.30;1.00
15969;DHT22;8085;53.472;9.794;2023-05-07T09:20:32;11.30;1.00
15969;DHT22;8085;53.472;9.794;2023-05-07T09:22:59;11.30;1.00
15969;DHT22;8085;53.472;9.794;2023-05-07T09:25:30;11.30;1.00
15969;DHT22;8085;53.472;9.794;2023-05-07T09:27:58;11.50;1.00
15969;DHT22;8085;53.472;9.794;2023-05-07T09:30:27;11.60;1.00
15969;DHT22;8085;53.472;9.794;2023-05-07T09:32:55;11.60;1.00
15969;DHT22;8085;53.472;9.794;2023-05-07T09:35:22;11.70;1.00
15969;DHT22;8085;53.472;9.794;2023-05-07T09:37:49;11.80;1.00
15969;DHT22;8085;53.472;9.794;2023-05-07T09:40:24;12.00;1.00
15969;DHT22;8085;53.472;9.794;2023-05-07T09:42:52;12.10;1.00
15969;DHT22;8085;53.472;9.794;2023-05-07T09:45:22;12.30;1.00
15969;DHT22;8085;53.472;9.794;2023-05-07T09:47:54;12.30;1.00
15969;DHT22;8085;53.472;9.794;2023-05-07T09:50:26;12.30;1.00
15969;DHT22;8085;53.472;9.794;2023-05-07T09:52:54;12.50;1.00
15969;DHT22;8085;53.472;9.794;2023-05-07T09:55:21;12.50;1.00
15969;DHT22;8085;53.472;9.794;2023-05-07T09:57:51;12.50;1.00
15969;DHT22;8085;53.472;9.794;2023-05-07T10:00:19;12.60;1.00
15969;DHT22;8085;53.472;9.794;2023-05-07T10:02:47;12.50;1.00
15969;DHT22;8085;53.472;9.794;2023-05-07T10:05:15;12.30;1.00
15969;DHT22;8085;53.472;9.794;2023-05-07T10:07:43;12.30;1.00
15969;DHT22;8085;53.472;9.794;2023-05-07T10:10:11;12.50;1.00
15969;DHT22;8085;53.472;9.794;2023-05-07T10:12:38;12.50;1.00
15969;DHT22;8085;53.472;9.794;2023-05-07T10:15:09;12.60;1.00
15969;DHT22;8085;53.472;9.794;2023-05-07T10:17:37;12.60;1.00
15969;DHT22;8085;53.472;9.794;2023-05-07T10:20:04;12.70;1.00
15969;DHT22;8085;53.472;9.794;2023-05-07T10:22:36;12.60;1.00
15969;DHT22;8085;53.472;9.794;2023-05-07T10:25:06;12.40;1.00
15969;DHT22;8085;53.472;9.794;2023-05-07T10:27:36;12.30;1.00
15969;DHT22;8085;53.472;9.794;2023-05-07T10:30:12;12.60;1.00
15969;DHT22;8085;53.472;9.794;2023-05-07T10:32:44;12.70;1.00
15969;DHT22;8085;53.472;9.794;2023-05-07T10:35:17;12.60;1.00
15969;DHT22;8085;53.472;9.794;2023-05-07T10:37:45;12.60;1.00
15969;DHT22;8085;53.472;9.794;2023-05-07T10:40:13;12.60;1.00
15969;DHT22;8085;53.472;9.794;2023-05-07T10:42:53;12.70;1.00
15969;DHT22;8085;53.472;9.794;2023-05-07T10:45:23;12.90;1.00
15969;DHT22;8085;53.472;9.794;2023-05-07T10:48:06;13.20;1.00
15969;DHT22;8085;53.472;9.794;2023-05-07T10:50:33;13.20;1.00
15969;DHT22;8085;53.472;9.794;2023-05-07T10:53:22;13.10;1.00
15969;DHT22;8085;53.472;9.794;2023-05-07T10:56:25;13.10;1.00
15969;DHT22;8085;53.472;9.794;2023-05-07T10:58:56;13.00;1.00
15969;DHT22;8085;53.472;9.794;2023-05-07T11:01:52;13.00;1.00
15969;DHT22;8085;53.472;9.794;2023-05-07T11:04:20;12.90;1.00
15969;DHT22;8085;53.472;9.794;2023-05-07T11:07:31;12.90;1.00
15969;DHT22;8085;53.472;9.794;2023-05-07T11:09:59;12.80;1.00
15969;DHT22;8085;53.472;9.794;2023-05-07T11:12:55;12.90;1.00
15969;DHT22;8085;53.472;9.794;2023-05-07T11:15:39;12.80;1.00
15969;DHT22;8085;53.472;9.794;2023-05-07T11:18:09;12.70;1.00
15969;DHT22;8085;53.472;9.794;2023-05-07T11:20:51;12.60;1.00
15969;DHT22;8085;53.472;9.794;2023-05-07T11:26:18;13.00;1.00
15969;DHT22;8085;53.472;9.794;2023-05-07T11:28:46;13.20;1.00
15969;DHT22;8085;53.472;9.794;2023-05-07T11:31:13;13.30;1.00
15969;DHT22;8085;53.472;9.794;2023-05-07T11:33:43;13.20;1.00
15969;DHT22;8085;53.472;9.794;2023-05-07T11:36:11;13.20;1.00
15969;DHT22;8085;53.472;9.794;2023-05-07T11:38:38;13.30;1.00
15969;DHT22;8085;53.472;9.794;2023-05-07T11:41:05;13.50;1.00
15969;DHT22;8085;53.472;9.794;2023-05-07T11:43:32;13.50;99.90
15969;DHT22;8085;53.472;9.794;2023-05-07T11:46:09;13.70;99.90
15969;DHT22;8085;53.472;9.794;2023-05-07T11:48:36;13.80;99.90
15969;DHT22;8085;53.472;9.794;2023-05-07T11:51:06;14.10;99.90
15969;DHT22;8085;53.472;9.794;2023-05-07T11:53:38;14.20;1.00
15969;DHT22;8085;53.472;9.794;2023-05-07T11:56:09;14.00;1.00
15969;DHT22;8085;53.472;9.794;2023-05-07T11:58:36;13.90;43.40
15969;DHT22;8085;53.472;9.794;2023-05-07T12:01:03;14.00;1.00
15969;DHT22;8085;53.472;9.794;2023-05-07T12:03:31;14.20;1.00
15969;DHT22;8085;53.472;9.794;2023-05-07T12:05:57;14.20;1.00
15969;DHT22;8085;53.472;9.794;2023-05-07T12:08:27;14.20;1.00
15969;DHT22;8085;53.472;9.794;2023-05-07T12:10:54;14.30;1.00
15969;DHT22;8085;53.472;9.794;2023-05-07T12:13:22;14.30;1.00
15969;DHT22;8085;53.472;9.794;2023-05-07T12:15:50;14.40;1.00
15969;DHT22;8085;53.472;9.794;2023-05-07T12:18:18;14.50;1.00
15969;DHT22;8085;53.472;9.794;2023-05-07T12:20:45;14.60;1.00
15969;DHT22;8085;53.472;9.794;2023-05-07T12:23:13;14.60;99.90
15969;DHT22;8085;53.472;9.794;2023-05-07T12:25:43;14.50;99.90
15969;DHT22;8085;53.472;9.794;2023-05-07T12:28:13;14.70;99.90
15969;DHT22;8085;53.472;9.794;2023-05-07T12:30:41;14.90;99.90
15969;DHT22;8085;53.472;9.794;2023-05-07T12:33:10;15.40;8.50
15969;DHT22;8085;53.472;9.794;2023-05-07T12:35:39;15.90;99.90
15969;DHT22;8085;53.472;9.794;2023-05-07T12:38:08;16.30;1.00
15969;DHT22;8085;53.472;9.794;2023-05-07T12:40:36;16.20;1.00
15969;DHT22;8085;53.472;9.794;2023-05-07T12:43:05;16.30;1.00
15969;DHT22;8085;53.472;9.794;2023-05-07T12:45:37;16.00;1.00
15969;DHT22;8085;53.472;9.794;2023-05-07T12:48:04;15.60;1.00
15969;DHT22;8085;53.472;9.794;2023-05-07T12:50:32;15.50;99.90
15969;DHT22;8085;53.472;9.794;2023-05-07T12:52:59;15.80;99.90
15969;DHT22;8085;53.472;9.794;2023-05-07T12:55:29;15.90;99.90
15969;DHT22;8085;53.472;9.794;2023-05-07T12:57:55;16.00;1.00
15969;DHT22;8085;53.472;9.794;2023-05-07T13:00:35;16.20;29.70
15969;DHT22;8085;53.472;9.794;2023-05-07T13:03:01;16.20;9.20
15969;DHT22;8085;53.472;9.794;2023-05-07T13:05:28;16.50;99.90
15969;DHT22;8085;53.472;9.794;2023-05-07T13:07:56;16.60;99.90
15969;DHT22;8085;53.472;9.794;2023-05-07T13:10:23;16.80;1.00
15969;DHT22;8085;53.472;9.794;2023-05-07T13:12:50;17.00;1.00
15969;DHT22;8085;53.472;9.794;2023-05-07T13:15:17;17.30;99.90
15969;DHT22;8085;53.472;9.794;2023-05-07T13:17:45;17.30;1.00
15969;DHT22;8085;53.472;9.794;2023-05-07T13:20:12;17.20;1.00
15969;DHT22;8085;53.472;9.794;2023-05-07T13:22:39;17.20;1.00
15969;DHT22;8085;53.472;9.794;2023-05-07T13:25:07;16.80;1.00
15969;DHT22;8085;53.472;9.794;2023-05-07T13:27:34;16.40;99.90
15969;DHT22;8085;53.472;9.794;2023-05-07T13:30:03;16.10;1.00
15969;DHT22;8085;53.472;9.794;2023-05-07T13:32:30;16.10;99.90
15969;DHT22;8085;53.472;9.794;2023-05-07T13:34:59;15.80;1.00
15969;DHT22;8085;53.472;9.794;2023-05-07T13:37:26;15.70;69.10
15969;DHT22;8085;53.472;9.794;2023-05-07T13:39:55;15.70;1.00
15969;DHT22;8085;53.472;9.794;2023-05-07T13:42:22;15.70;12.30
15969;DHT22;8085;53.472;9.794;2023-05-07T13:44:49;15.60;99.90
15969;DHT22;8085;53.472;9.794;2023-05-07T13:47:16;15.50;85.00
15969;DHT22;8085;53.472;9.794;2023-05-07T13:49:43;15.50;99.90
15969;DHT22;8085;53.472;9.794;2023-05-07T13:52:11;15.50;1.00
15969;DHT22;8085;53.472;9.794;2023-05-07T13:54:38;15.40;99.90
15969;DHT22;8085;53.472;9.794;2023-05-07T13:57:05;15.20;99.90
15969;DHT22;8085;53.472;9.794;2023-05-07T13:59:33;15.30;1.00
15969;DHT22;8085;53.472;9.794;2023-05-07T14:02:00;15.40;30.90
15969;DHT22;8085;53.472;9.794;2023-05-07T14:04:27;15.50;1.00
15969;DHT22;8085;53.472;9.794;2023-05-07T14:06:53;16.10;1.00
15969;DHT22;8085;53.472;9.794;2023-05-07T14:09:22;16.50;1.00
15969;DHT22;8085;53.472;9.794;2023-05-07T14:11:49;16.60;99.90
15969;DHT22;8085;53.472;9.794;2023-05-07T14:14:18;17.00;99.90
15969;DHT22;8085;53.472;9.794;2023-05-07T14:16:45;17.30;1.00
15969;DHT22;8085;53.472;9.794;2023-05-07T14:19:12;16.90;1.00
15969;DHT22;8085;53.472;9.794;2023-05-07T14:21:39;16.40;99.90
15969;DHT22;8085;53.472;9.794;2023-05-07T14:24:07;16.20;99.90
15969;DHT22;8085;53.472;9.794;2023-05-07T14:26:35;16.00;99.90
15969;DHT22;8085;53.472;9.794;2023-05-07T14:29:02;16.00;1.00
15969;DHT22;8085;53.472;9.794;2023-05-07T14:31:29;16.00;1.00
15969;DHT22;8085;53.472;9.794;2023-05-07T14:33:56;15.90;1.00
15969;DHT22;8085;53.472;9.794;2023-05-07T14:36:24;16.00;99.90
15969;DHT22;8085;53.472;9.794;2023-05-07T14:38:52;16.00;1.00
15969;DHT22;8085;53.472;9.794;2023-05-07T14:41:19;16.00;99.90
15969;DHT22;8085;53.472;9.794;2023-05-07T14:43:48;15.90;99.90
15969;DHT22;8085;53.472;9.794;2023-05-07T14:46:16;15.80;1.00
15969;DHT22;8085;53.472;9.794;2023-05-07T14:48:43;15.70;1.00
15969;DHT22;8085;53.472;9.794;2023-05-07T14:51:12;15.70;99.90
15969;DHT22;8085;53.472;9.794;2023-05-07T14:53:42;15.50;99.90
15969;DHT22;8085;53.472;9.794;2023-05-07T14:56:09;15.60;1.00
15969;DHT22;8085;53.472;9.794;2023-05-07T14:58:36;15.60;1.00
15969;DHT22;8085;53.472;9.794;2023-05-07T15:01:04;15.60;1.00
15969;DHT22;8085;53.472;9.794;2023-05-07T15:03:31;15.70;1.00
15969;DHT22;8085;53.472;9.794;2023-05-07T15:06:01;15.80;99.90
15969;DHT22;8085;53.472;9.794;2023-05-07T15:08:28;16.00;99.90
15969;DHT22;8085;53.472;9.794;2023-05-07T15:10:55;16.00;99.90
15969;DHT22;8085;53.472;9.794;2023-05-07T15:13:22;16.00;99.90
15969;DHT22;8085;53.472;9.794;2023-05-07T15:15:49;16.00;1.00
15969;DHT22;8085;53.472;9.794;2023-05-07T15:18:18;16.10;1.00
15969;DHT22;8085;53.472;9.794;2023-05-07T15:20:44;16.10;99.90
15969;DHT22;8085;53.472;9.794;2023-05-07T15:23:11;16.30;99.90
15969;DHT22;8085;53.472;9.794;2023-05-07T15:25:39;16.30;99.90
15969;DHT22;8085;53.472;9.794;2023-05-07T15:28:06;16.40;1.00
15969;DHT22;8085;53.472;9.794;2023-05-07T15:30:33;16.30;1.00
15969;DHT22;8085;53.472;9.794;2023-05-07T15:33:01;16.30;99.90
15969;DHT22;8085;53.472;9.794;2023-05-07T15:35:29;16.30;1.00
15969;DHT22;8085;53.472;9.794;2023-05-07T15:37:56;16.20;80.80
15969;DHT22;8085;53.472;9.794;2023-05-07T15:40:23;16.20;99.90
15969;DHT22;8085;53.472;9.794;2023-05-07T15:42:54;16.20;92.80
15969;DHT22;8085;53.472;9.794;2023-05-07T15:45:21;16.20;1.00
15969;DHT22;8085;53.472;9.794;2023-05-07T15:47:49;16.30;1.00
15969;DHT22;8085;53.472;9.794;2023-05-07T15:50:16;16.30;99.90
15969;DHT22;8085;53.472;9.794;2023-05-07T15:52:44;16.20;1.00
15969;DHT22;8085;53.472;9.794;2023-05-07T15:55:11;16.20;1.00
15969;DHT22;8085;53.472;9.794;2023-05-07T15:57:38;16.20;99.90
15969;DHT22;8085;53.472;9.794;2023-05-07T16:00:06;16.30;99.90
15969;DHT22;8085;53.472;9.794;2023-05-07T16:02:37;16.40;1.00
15969;DHT22;8085;53.472;9.794;2023-05-07T16:05:05;16.60;92.70